Terminal Aerodrome Forecast
Issued by NWS

Home | Current Version | Previous Version | Text Only | Print | Product List | Glossary On
Versions: 1 2 3 4 5 6 7 8 9 10 11 12 13 14 15 16 17 18 19 20 21 22 23 24 25 26 27 28 29 30 31 32 33 34 35 36
654
FTUS43 KFGF 181854 AAA
TAFTVF
TAF AMD
KTVF 181854Z 1819/1918 31013G21KT P6SM -SN OVC020
     FM182100 30013G21KT P6SM SCT025
     FM190000 29012KT P6SM SCT050
     FM190800 VRB06KT P6SM SKC
     FM191500 21009KT P6SM SCT120=

USA.gov is the U.S. government's official web portal to all federal, state and local government web resources and services.